Reynosa, México

6:00 PM CDT en Octubre 22, 2014 (GMT -0500)
McAllen Miller International | Change Station
CLOSE
Current Station
Aeropuerto
Location: McAllen,
Altura: 105 ft
Estaciones meteorológicas cercanas

Alt 105 ft 26.18 °N, 98.24 °W | Updated 7 minutes ago

Nublado
Nublado
81 ° F
Sensación térmica 83 ° F
N
12
Viento Variable Viento desde ENE
Gusts 18 mph

Hoy
Alta -- | Baja -- ° F
--% Posibilidad de precipitaciones
Ayer
Alta -- | Baja -- ° F
Precip. -- pul
7:35 AM 6:58 PM
Creciente menguante, 1% visible
Presión 29.97 pul
Visibilidad 10.0 Millas
Nubes Nublado 6500 ft
Índice de calor 83 ° F
Punto de rocío 67 ° F
Humedad 62%
Precipitaciones 0.00 pul
Espesor de la nieve No disponible.
UV 0 de una escala de 12
Polen No disponible.
Calidad del aire No disponible.
Flu Activity No disponible.
METAR KMFE 222253Z 07010G16KT 10SM OVC065 27/19 A2997 RMK AO2 SLP148 T02720194

More Conditions Fewer Conditions

Presión 29.97 pul
Visibilidad 10.0 Millas
Nubes Nublado 6500 ft
Índice de calor 83 ° F
Punto de rocío 67 ° F
Humedad 62%
Precipitaciones 0.00 pul
Espesor de la nieve No disponible.
UV 0 de una escala de 12
Polen No disponible.
Calidad del aire No disponible.
Flu Activity No disponible.
METAR KMFE 222253Z 07010G16KT 10SM OVC065 27/19 A2997 RMK AO2 SLP148 T02720194

More Conditions Fewer Conditions

10-Day Weather Forecast

Almanac

Astronomía

Oct. 22, 2014 Salida Puesta
Hora real 7:35 AM CDT 6:58 PM CDT
Crepúsculo civil 7:12 AM CDT 7:22 PM CDT
Crepúsculo náutico 6:45 AM CDT 7:49 PM CDT
Crepúsculo astronómico 6:18 AM CDT 8:15 PM CDT
Luna 6:25 AM CDT 6:21 PM CDT
Horas de luz 12h 09m
Horas de luz
11h 23m
Tomorrow will be 1m 25s shorter.
Creciente menguante, 1% of the Moon is Illuminated
Hoy
Creciente menguante
Oct 23
Nueva
Oct 30
Cuarto creciente
Nov 6
Luna llena
Nov 14
Cuarto menguante

Extremos de hoy

Máximos del país Bajas del país

Community

WunderPhotos

Upload Photos

1,764,071 ¡fotos cargadas!

WunderBlogs® & News

Nearby

Calidad del aire

Not available.

Grosos de nieve

Not available.

Actividad de terremotos

Ciudad Distance Mag. Tiempo y dato
No hay informes recientes de la actividad sísmica.
Magnitud mínima muestra es 2,5.

Temperaturas de aguas costeras

Lugar Temperatura
Sin partes meteorológicos de las estaciones

Estaciones meteorológicas cercanas